sensor_id;sensor_type;location;lat;lon;timestamp;temperature;humidity
22682;DHT22;11508;50.856;4.380;2023-05-23T00:00:24;15.30;17.80
22682;DHT22;11508;50.856;4.380;2023-05-23T00:02:49;15.20;43.60
22682;DHT22;11508;50.856;4.380;2023-05-23T00:05:15;14.90;46.80
22682;DHT22;11508;50.856;4.380;2023-05-23T00:07:43;15.10;54.30
22682;DHT22;11508;50.856;4.380;2023-05-23T00:10:10;15.30;24.40
22682;DHT22;11508;50.856;4.380;2023-05-23T00:12:36;15.30;28.80
22682;DHT22;11508;50.856;4.380;2023-05-23T00:15:07;15.30;29.90
22682;DHT22;11508;50.856;4.380;2023-05-23T00:17:34;15.30;36.40
22682;DHT22;11508;50.856;4.380;2023-05-23T00:20:04;15.30;33.60
22682;DHT22;11508;50.856;4.380;2023-05-23T00:22:30;15.40;28.90
22682;DHT22;11508;50.856;4.380;2023-05-23T00:24:56;14.60;65.70
22682;DHT22;11508;50.856;4.380;2023-05-23T00:27:22;14.40;99.90
22682;DHT22;11508;50.856;4.380;2023-05-23T00:29:48;14.40;99.90
22682;DHT22;11508;50.856;4.380;2023-05-23T00:32:14;14.60;99.90
22682;DHT22;11508;50.856;4.380;2023-05-23T00:34:40;14.20;99.90
22682;DHT22;11508;50.856;4.380;2023-05-23T00:37:05;14.40;99.90
22682;DHT22;11508;50.856;4.380;2023-05-23T00:39:32;14.70;99.90
22682;DHT22;11508;50.856;4.380;2023-05-23T00:41:58;15.10;99.90
22682;DHT22;11508;50.856;4.380;2023-05-23T00:44:28;15.40;72.30
22682;DHT22;11508;50.856;4.380;2023-05-23T00:46:55;15.40;40.70
22682;DHT22;11508;50.856;4.380;2023-05-23T00:49:22;15.50;23.70
22682;DHT22;11508;50.856;4.380;2023-05-23T00:51:49;15.50;30.00
22682;DHT22;11508;50.856;4.380;2023-05-23T00:54:34;15.60;16.00
22682;DHT22;11508;50.856;4.380;2023-05-23T00:57:01;15.40;1.00
22682;DHT22;11508;50.856;4.380;2023-05-23T00:59:27;14.90;72.40
22682;DHT22;11508;50.856;4.380;2023-05-23T01:01:55;14.80;87.10
22682;DHT22;11508;50.856;4.380;2023-05-23T01:04:21;14.90;95.10
22682;DHT22;11508;50.856;4.380;2023-05-23T01:06:54;15.10;85.90
22682;DHT22;11508;50.856;4.380;2023-05-23T01:09:22;14.90;70.00
22682;DHT22;11508;50.856;4.380;2023-05-23T01:14:37;15.20;77.00
22682;DHT22;11508;50.856;4.380;2023-05-23T01:17:12;15.10;67.70
22682;DHT22;11508;50.856;4.380;2023-05-23T01:20:13;14.50;99.90
22682;DHT22;11508;50.856;4.380;2023-05-23T01:22:58;14.50;99.90
22682;DHT22;11508;50.856;4.380;2023-05-23T01:28:30;14.20;99.90
22682;DHT22;11508;50.856;4.380;2023-05-23T01:30:57;14.40;99.90
22682;DHT22;11508;50.856;4.380;2023-05-23T01:33:24;14.70;99.90
22682;DHT22;11508;50.856;4.380;2023-05-23T01:35:52;14.60;99.90
22682;DHT22;11508;50.856;4.380;2023-05-23T01:38:18;14.60;99.90
22682;DHT22;11508;50.856;4.380;2023-05-23T01:40:43;14.70;99.90
22682;DHT22;11508;50.856;4.380;2023-05-23T01:43:09;14.70;98.50
22682;DHT22;11508;50.856;4.380;2023-05-23T01:45:36;14.60;99.90
22682;DHT22;11508;50.856;4.380;2023-05-23T01:48:03;14.50;99.90
22682;DHT22;11508;50.856;4.380;2023-05-23T01:50:31;14.50;99.90
22682;DHT22;11508;50.856;4.380;2023-05-23T01:52:57;14.40;99.90
22682;DHT22;11508;50.856;4.380;2023-05-23T01:55:24;14.50;99.90
22682;DHT22;11508;50.856;4.380;2023-05-23T01:57:52;14.70;99.90
22682;DHT22;11508;50.856;4.380;2023-05-23T02:00:19;14.50;99.90
22682;DHT22;11508;50.856;4.380;2023-05-23T02:02:46;14.40;99.90
22682;DHT22;11508;50.856;4.380;2023-05-23T02:05:12;14.30;99.90
22682;DHT22;11508;50.856;4.380;2023-05-23T02:07:37;14.10;99.90
22682;DHT22;11508;50.856;4.380;2023-05-23T02:10:06;14.10;99.90
22682;DHT22;11508;50.856;4.380;2023-05-23T02:12:32;14.30;99.90
22682;DHT22;11508;50.856;4.380;2023-05-23T02:14:58;14.50;99.90
22682;DHT22;11508;50.856;4.380;2023-05-23T02:17:24;14.70;99.90
22682;DHT22;11508;50.856;4.380;2023-05-23T02:19:49;14.60;97.20
22682;DHT22;11508;50.856;4.380;2023-05-23T02:22:15;14.30;99.90
22682;DHT22;11508;50.856;4.380;2023-05-23T02:24:41;14.10;99.90
22682;DHT22;11508;50.856;4.380;2023-05-23T02:27:07;14.30;99.90
22682;DHT22;11508;50.856;4.380;2023-05-23T02:29:32;14.20;99.90
22682;DHT22;11508;50.856;4.380;2023-05-23T02:31:58;14.30;99.90
22682;DHT22;11508;50.856;4.380;2023-05-23T02:34:24;14.40;99.90
22682;DHT22;11508;50.856;4.380;2023-05-23T02:36:50;14.80;99.90
22682;DHT22;11508;50.856;4.380;2023-05-23T02:39:16;15.00;93.70
22682;DHT22;11508;50.856;4.380;2023-05-23T02:41:42;14.90;54.70
22682;DHT22;11508;50.856;4.380;2023-05-23T02:44:08;15.00;66.70
22682;DHT22;11508;50.856;4.380;2023-05-23T02:46:34;15.20;55.70
22682;DHT22;11508;50.856;4.380;2023-05-23T02:48:59;15.40;26.50
22682;DHT22;11508;50.856;4.380;2023-05-23T02:51:25;15.10;36.50
22682;DHT22;11508;50.856;4.380;2023-05-23T02:53:51;14.60;52.90
22682;DHT22;11508;50.856;4.380;2023-05-23T02:56:16;14.30;98.50
22682;DHT22;11508;50.856;4.380;2023-05-23T02:58:43;14.30;99.90
22682;DHT22;11508;50.856;4.380;2023-05-23T03:01:09;14.60;96.60
22682;DHT22;11508;50.856;4.380;2023-05-23T03:03:35;14.40;92.50
22682;DHT22;11508;50.856;4.380;2023-05-23T03:06:03;14.40;91.60
22682;DHT22;11508;50.856;4.380;2023-05-23T03:08:30;14.50;95.50
22682;DHT22;11508;50.856;4.380;2023-05-23T03:10:56;14.50;91.70
22682;DHT22;11508;50.856;4.380;2023-05-23T03:13:22;14.90;88.10
22682;DHT22;11508;50.856;4.380;2023-05-23T03:15:48;15.00;36.50
22682;DHT22;11508;50.856;4.380;2023-05-23T03:18:14;15.00;38.00
22682;DHT22;11508;50.856;4.380;2023-05-23T03:20:40;15.10;26.60
22682;DHT22;11508;50.856;4.380;2023-05-23T03:23:06;15.00;8.20
22682;DHT22;11508;50.856;4.380;2023-05-23T03:25:32;14.80;28.40
22682;DHT22;11508;50.856;4.380;2023-05-23T03:27:58;15.00;20.80
22682;DHT22;11508;50.856;4.380;2023-05-23T03:30:24;14.60;57.80
22682;DHT22;11508;50.856;4.380;2023-05-23T03:32:50;14.60;39.80
22682;DHT22;11508;50.856;4.380;2023-05-23T03:35:15;14.50;65.80
22682;DHT22;11508;50.856;4.380;2023-05-23T03:37:41;14.90;45.90
22682;DHT22;11508;50.856;4.380;2023-05-23T03:40:07;15.20;1.50
22682;DHT22;11508;50.856;4.380;2023-05-23T03:42:35;15.40;1.00
22682;DHT22;11508;50.856;4.380;2023-05-23T03:45:01;15.20;1.00
22682;DHT22;11508;50.856;4.380;2023-05-23T03:47:26;15.30;1.00
22682;DHT22;11508;50.856;4.380;2023-05-23T03:49:52;15.10;1.00
22682;DHT22;11508;50.856;4.380;2023-05-23T03:52:18;15.20;1.00
22682;DHT22;11508;50.856;4.380;2023-05-23T03:54:43;15.20;1.00
22682;DHT22;11508;50.856;4.380;2023-05-23T03:57:09;14.90;20.10
22682;DHT22;11508;50.856;4.380;2023-05-23T03:59:35;15.00;6.60
22682;DHT22;11508;50.856;4.380;2023-05-23T04:02:01;15.00;11.90
22682;DHT22;11508;50.856;4.380;2023-05-23T04:04:27;15.00;6.40
22682;DHT22;11508;50.856;4.380;2023-05-23T04:06:53;15.20;1.00
22682;DHT22;11508;50.856;4.380;2023-05-23T04:09:19;15.20;1.00
22682;DHT22;11508;50.856;4.380;2023-05-23T04:11:45;15.20;1.00
22682;DHT22;11508;50.856;4.380;2023-05-23T04:14:12;15.30;1.00
22682;DHT22;11508;50.856;4.380;2023-05-23T04:16:38;15.20;1.00
22682;DHT22;11508;50.856;4.380;2023-05-23T04:19:06;15.00;1.00
22682;DHT22;11508;50.856;4.380;2023-05-23T04:21:32;14.90;1.00
22682;DHT22;11508;50.856;4.380;2023-05-23T04:23:59;15.00;1.00
22682;DHT22;11508;50.856;4.380;2023-05-23T04:26:24;15.00;1.00
22682;DHT22;11508;50.856;4.380;2023-05-23T04:28:50;15.00;1.00
22682;DHT22;11508;50.856;4.380;2023-05-23T04:31:19;15.00;1.00
22682;DHT22;11508;50.856;4.380;2023-05-23T04:33:45;15.10;1.00
22682;DHT22;11508;50.856;4.380;2023-05-23T04:36:10;15.20;1.00
22682;DHT22;11508;50.856;4.380;2023-05-23T04:38:36;15.30;1.00
22682;DHT22;11508;50.856;4.380;2023-05-23T04:41:05;15.40;1.00
22682;DHT22;11508;50.856;4.380;2023-05-23T04:43:31;15.40;1.00
22682;DHT22;11508;50.856;4.380;2023-05-23T04:46:01;15.50;1.00
22682;DHT22;11508;50.856;4.380;2023-05-23T04:48:26;15.60;1.00
22682;DHT22;11508;50.856;4.380;2023-05-23T04:50:52;15.40;1.00
22682;DHT22;11508;50.856;4.380;2023-05-23T04:53:21;15.60;1.00
22682;DHT22;11508;50.856;4.380;2023-05-23T04:55:47;15.40;1.00
22682;DHT22;11508;50.856;4.380;2023-05-23T04:58:13;15.50;1.00
22682;DHT22;11508;50.856;4.380;2023-05-23T05:00:38;15.50;1.00
22682;DHT22;11508;50.856;4.380;2023-05-23T05:03:04;15.50;1.00
22682;DHT22;11508;50.856;4.380;2023-05-23T05:05:30;15.60;1.00
22682;DHT22;11508;50.856;4.380;2023-05-23T05:07:56;15.60;1.00
22682;DHT22;11508;50.856;4.380;2023-05-23T05:10:22;14.90;1.00
22682;DHT22;11508;50.856;4.380;2023-05-23T05:12:48;14.90;1.00
22682;DHT22;11508;50.856;4.380;2023-05-23T05:15:15;14.90;1.00
22682;DHT22;11508;50.856;4.380;2023-05-23T05:17:42;15.10;1.00
22682;DHT22;11508;50.856;4.380;2023-05-23T05:20:08;14.70;27.00
22682;DHT22;11508;50.856;4.380;2023-05-23T05:22:38;14.70;37.20
22682;DHT22;11508;50.856;4.380;2023-05-23T05:25:06;14.90;15.40
22682;DHT22;11508;50.856;4.380;2023-05-23T05:27:33;15.00;1.00
22682;DHT22;11508;50.856;4.380;2023-05-23T05:29:58;15.00;1.00
22682;DHT22;11508;50.856;4.380;2023-05-23T05:32:29;15.30;1.00
22682;DHT22;11508;50.856;4.380;2023-05-23T05:35:02;15.50;1.00
22682;DHT22;11508;50.856;4.380;2023-05-23T05:37:28;15.50;1.00
22682;DHT22;11508;50.856;4.380;2023-05-23T05:39:54;15.40;1.00
22682;DHT22;11508;50.856;4.380;2023-05-23T05:42:24;15.50;1.00
22682;DHT22;11508;50.856;4.380;2023-05-23T05:44:49;15.60;1.00
22682;DHT22;11508;50.856;4.380;2023-05-23T05:47:15;15.70;99.90
22682;DHT22;11508;50.856;4.380;2023-05-23T05:49:41;15.80;99.90
22682;DHT22;11508;50.856;4.380;2023-05-23T05:52:07;15.70;99.90
22682;DHT22;11508;50.856;4.380;2023-05-23T05:54:33;15.80;99.90
22682;DHT22;11508;50.856;4.380;2023-05-23T05:56:59;15.90;99.90
22682;DHT22;11508;50.856;4.380;2023-05-23T05:59:24;15.20;99.90
22682;DHT22;11508;50.856;4.380;2023-05-23T06:01:51;15.20;1.00
22682;DHT22;11508;50.856;4.380;2023-05-23T06:04:17;15.00;1.00
22682;DHT22;11508;50.856;4.380;2023-05-23T06:06:43;14.80;1.00
22682;DHT22;11508;50.856;4.380;2023-05-23T06:09:09;14.80;1.00
22682;DHT22;11508;50.856;4.380;2023-05-23T06:11:37;14.60;1.00
22682;DHT22;11508;50.856;4.380;2023-05-23T06:14:06;14.90;1.00
22682;DHT22;11508;50.856;4.380;2023-05-23T06:16:32;15.00;1.00
22682;DHT22;11508;50.856;4.380;2023-05-23T06:18:58;15.30;1.00
22682;DHT22;11508;50.856;4.380;2023-05-23T06:21:23;15.20;1.00
22682;DHT22;11508;50.856;4.380;2023-05-23T06:23:49;14.90;1.00
22682;DHT22;11508;50.856;4.380;2023-05-23T06:26:15;14.70;1.00
22682;DHT22;11508;50.856;4.380;2023-05-23T06:28:41;14.60;1.00
22682;DHT22;11508;50.856;4.380;2023-05-23T06:31:06;14.80;1.00
22682;DHT22;11508;50.856;4.380;2023-05-23T06:33:35;14.90;1.00
22682;DHT22;11508;50.856;4.380;2023-05-23T06:36:01;15.10;1.00
22682;DHT22;11508;50.856;4.380;2023-05-23T06:38:29;15.10;1.00
22682;DHT22;11508;50.856;4.380;2023-05-23T06:40:55;15.00;1.00
22682;DHT22;11508;50.856;4.380;2023-05-23T06:43:21;15.10;1.00
22682;DHT22;11508;50.856;4.380;2023-05-23T06:45:47;15.30;99.90
22682;DHT22;11508;50.856;4.380;2023-05-23T06:48:13;15.30;99.90
22682;DHT22;11508;50.856;4.380;2023-05-23T06:50:39;15.40;99.90
22682;DHT22;11508;50.856;4.380;2023-05-23T06:53:05;15.70;66.90
22682;DHT22;11508;50.856;4.380;2023-05-23T06:55:31;15.80;1.00
22682;DHT22;11508;50.856;4.380;2023-05-23T06:57:59;16.00;99.90
22682;DHT22;11508;50.856;4.380;2023-05-23T07:00:25;16.10;99.90
22682;DHT22;11508;50.856;4.380;2023-05-23T07:02:51;15.50;99.90
22682;DHT22;11508;50.856;4.380;2023-05-23T07:05:16;14.70;99.90
22682;DHT22;11508;50.856;4.380;2023-05-23T07:07:42;14.30;1.00
22682;DHT22;11508;50.856;4.380;2023-05-23T07:10:09;14.90;99.90
22682;DHT22;11508;50.856;4.380;2023-05-23T07:12:35;15.40;99.90
22682;DHT22;11508;50.856;4.380;2023-05-23T07:15:01;15.30;99.90
22682;DHT22;11508;50.856;4.380;2023-05-23T07:17:27;15.70;1.00
22682;DHT22;11508;50.856;4.380;2023-05-23T07:19:55;15.90;99.90
22682;DHT22;11508;50.856;4.380;2023-05-23T07:22:21;15.60;99.90
22682;DHT22;11508;50.856;4.380;2023-05-23T07:24:47;16.10;99.90
22682;DHT22;11508;50.856;4.380;2023-05-23T07:27:12;17.20;99.90
22682;DHT22;11508;50.856;4.380;2023-05-23T07:29:38;18.10;99.90
22682;DHT22;11508;50.856;4.380;2023-05-23T07:32:04;17.60;99.90
22682;DHT22;11508;50.856;4.380;2023-05-23T07:34:30;17.40;99.90
22682;DHT22;11508;50.856;4.380;2023-05-23T07:36:56;18.10;99.90
22682;DHT22;11508;50.856;4.380;2023-05-23T07:39:22;18.90;1.00
22682;DHT22;11508;50.856;4.380;2023-05-23T07:41:49;19.80;99.90
22682;DHT22;11508;50.856;4.380;2023-05-23T07:44:16;20.70;1.00
22682;DHT22;11508;50.856;4.380;2023-05-23T07:46:42;21.20;1.00
22682;DHT22;11508;50.856;4.380;2023-05-23T07:49:08;21.00;99.90
22682;DHT22;11508;50.856;4.380;2023-05-23T07:51:34;21.20;26.90
22682;DHT22;11508;50.856;4.380;2023-05-23T07:54:00;20.60;10.30
22682;DHT22;11508;50.856;4.380;2023-05-23T07:56:26;20.10;14.20
22682;DHT22;11508;50.856;4.380;2023-05-23T07:58:52;19.40;48.90
22682;DHT22;11508;50.856;4.380;2023-05-23T08:01:18;20.20;35.60
22682;DHT22;11508;50.856;4.380;2023-05-23T08:03:44;21.10;3.30
22682;DHT22;11508;50.856;4.380;2023-05-23T08:06:10;21.40;1.00
22682;DHT22;11508;50.856;4.380;2023-05-23T08:08:36;21.70;1.00
22682;DHT22;11508;50.856;4.380;2023-05-23T08:11:02;21.10;1.00
22682;DHT22;11508;50.856;4.380;2023-05-23T08:13:29;21.60;1.00
22682;DHT22;11508;50.856;4.380;2023-05-23T08:15:55;22.20;1.00
22682;DHT22;11508;50.856;4.380;2023-05-23T08:18:21;23.30;1.00
22682;DHT22;11508;50.856;4.380;2023-05-23T08:20:46;23.70;1.00
22682;DHT22;11508;50.856;4.380;2023-05-23T08:23:12;21.90;1.00
22682;DHT22;11508;50.856;4.380;2023-05-23T08:25:38;20.20;1.00
22682;DHT22;11508;50.856;4.380;2023-05-23T08:28:04;21.40;1.00
22682;DHT22;11508;50.856;4.380;2023-05-23T08:30:30;22.20;1.00
22682;DHT22;11508;50.856;4.380;2023-05-23T08:32:58;21.90;1.00
22682;DHT22;11508;50.856;4.380;2023-05-23T08:35:25;19.10;1.00
22682;DHT22;11508;50.856;4.380;2023-05-23T08:37:53;19.80;1.00
22682;DHT22;11508;50.856;4.380;2023-05-23T08:40:23;18.90;1.00
22682;DHT22;11508;50.856;4.380;2023-05-23T08:42:50;20.60;1.00
22682;DHT22;11508;50.856;4.380;2023-05-23T08:45:16;19.40;1.00
22682;DHT22;11508;50.856;4.380;2023-05-23T08:47:43;18.80;1.00
22682;DHT22;11508;50.856;4.380;2023-05-23T08:50:15;19.90;1.00
22682;DHT22;11508;50.856;4.380;2023-05-23T08:52:43;20.20;1.00
22682;DHT22;11508;50.856;4.380;2023-05-23T08:55:12;20.30;1.00
22682;DHT22;11508;50.856;4.380;2023-05-23T08:57:39;19.20;1.00
22682;DHT22;11508;50.856;4.380;2023-05-23T09:00:11;19.90;1.00
22682;DHT22;11508;50.856;4.380;2023-05-23T09:02:42;20.00;1.00
22682;DHT22;11508;50.856;4.380;2023-05-23T09:05:09;20.90;1.00
22682;DHT22;11508;50.856;4.380;2023-05-23T09:07:35;22.20;1.00
22682;DHT22;11508;50.856;4.380;2023-05-23T09:10:03;22.50;1.00
22682;DHT22;11508;50.856;4.380;2023-05-23T09:12:32;22.40;1.00
22682;DHT22;11508;50.856;4.380;2023-05-23T09:14:58;19.90;1.00
22682;DHT22;11508;50.856;4.380;2023-05-23T09:17:24;18.50;1.00
22682;DHT22;11508;50.856;4.380;2023-05-23T09:19:49;18.70;13.40
22682;DHT22;11508;50.856;4.380;2023-05-23T09:22:16;19.00;1.00
22682;DHT22;11508;50.856;4.380;2023-05-23T09:24:50;18.70;33.90
22682;DHT22;11508;50.856;4.380;2023-05-23T09:27:17;18.70;12.50
22682;DHT22;11508;50.856;4.380;2023-05-23T09:29:43;18.70;11.00
22682;DHT22;11508;50.856;4.380;2023-05-23T09:32:14;18.60;12.80
22682;DHT22;11508;50.856;4.380;2023-05-23T09:35:02;18.60;35.30
22682;DHT22;11508;50.856;4.380;2023-05-23T09:37:35;18.50;46.90
22682;DHT22;11508;50.856;4.380;2023-05-23T09:40:09;19.20;44.40
22682;DHT22;11508;50.856;4.380;2023-05-23T09:42:41;19.60;23.40
22682;DHT22;11508;50.856;4.380;2023-05-23T09:45:10;19.70;6.30
22682;DHT22;11508;50.856;4.380;2023-05-23T09:47:36;19.10;31.90
22682;DHT22;11508;50.856;4.380;2023-05-23T09:50:02;19.10;62.10
22682;DHT22;11508;50.856;4.380;2023-05-23T09:52:35;18.90;99.90
22682;DHT22;11508;50.856;4.380;2023-05-23T09:55:02;18.50;99.90
22682;DHT22;11508;50.856;4.380;2023-05-23T09:57:28;17.90;99.90
22682;DHT22;11508;50.856;4.380;2023-05-23T09:59:57;18.00;99.90
22682;DHT22;11508;50.856;4.380;2023-05-23T10:02:54;18.30;99.90
22682;DHT22;11508;50.856;4.380;2023-05-23T10:05:46;18.30;99.90
22682;DHT22;11508;50.856;4.380;2023-05-23T10:13:55;18.60;99.90
22682;DHT22;11508;50.856;4.380;2023-05-23T10:16:46;19.10;99.90
22682;DHT22;11508;50.856;4.380;2023-05-23T10:19:30;18.70;99.90
22682;DHT22;11508;50.856;4.380;2023-05-23T10:22:02;19.00;99.90
22682;DHT22;11508;50.856;4.380;2023-05-23T10:24:30;19.40;99.90
22682;DHT22;11508;50.856;4.380;2023-05-23T10:26:57;19.60;99.90
22682;DHT22;11508;50.856;4.380;2023-05-23T10:29:23;19.90;93.20
22682;DHT22;11508;50.856;4.380;2023-05-23T10:31:51;20.40;26.00
22682;DHT22;11508;50.856;4.380;2023-05-23T10:37:09;20.80;1.00
22682;DHT22;11508;50.856;4.380;2023-05-23T10:45:21;21.50;1.00
22682;DHT22;11508;50.856;4.380;2023-05-23T10:47:49;19.90;1.00
22682;DHT22;11508;50.856;4.380;2023-05-23T10:50:32;20.00;1.00
22682;DHT22;11508;50.856;4.380;2023-05-23T10:53:00;19.50;1.00
22682;DHT22;11508;50.856;4.380;2023-05-23T10:55:31;19.10;1.00
22682;DHT22;11508;50.856;4.380;2023-05-23T10:58:14;19.80;1.00
22682;DHT22;11508;50.856;4.380;2023-05-23T11:00:53;19.30;1.00
22682;DHT22;11508;50.856;4.380;2023-05-23T11:06:03;20.00;1.00
22682;DHT22;11508;50.856;4.380;2023-05-23T11:08:39;20.60;1.00
22682;DHT22;11508;50.856;4.380;2023-05-23T11:11:07;21.50;1.00
22682;DHT22;11508;50.856;4.380;2023-05-23T11:16:30;22.50;1.00
22682;DHT22;11508;50.856;4.380;2023-05-23T11:21:45;21.10;1.00
22682;DHT22;11508;50.856;4.380;2023-05-23T11:24:11;18.80;1.00
22682;DHT22;11508;50.856;4.380;2023-05-23T11:26:37;19.00;1.00
22682;DHT22;11508;50.856;4.380;2023-05-23T11:29:07;18.10;1.00
22682;DHT22;11508;50.856;4.380;2023-05-23T11:31:39;18.90;1.00
22682;DHT22;11508;50.856;4.380;2023-05-23T11:34:06;21.00;1.00
22682;DHT22;11508;50.856;4.380;2023-05-23T11:36:32;22.50;1.00
22682;DHT22;11508;50.856;4.380;2023-05-23T11:39:02;23.10;1.00
22682;DHT22;11508;50.856;4.380;2023-05-23T11:41:29;23.00;1.00
22682;DHT22;11508;50.856;4.380;2023-05-23T11:43:55;22.20;1.00
22682;DHT22;11508;50.856;4.380;2023-05-23T11:46:21;21.60;1.00
22682;DHT22;11508;50.856;4.380;2023-05-23T11:48:47;21.90;1.00
22682;DHT22;11508;50.856;4.380;2023-05-23T11:51:14;22.00;1.00
22682;DHT22;11508;50.856;4.380;2023-05-23T11:53:40;21.80;1.00
22682;DHT22;11508;50.856;4.380;2023-05-23T11:56:06;21.70;1.00
22682;DHT22;11508;50.856;4.380;2023-05-23T11:58:34;21.80;1.00
22682;DHT22;11508;50.856;4.380;2023-05-23T12:01:01;21.90;1.00
22682;DHT22;11508;50.856;4.380;2023-05-23T12:03:28;22.20;99.90
22682;DHT22;11508;50.856;4.380;2023-05-23T12:05:57;22.20;99.90
22682;DHT22;11508;50.856;4.380;2023-05-23T12:08:23;22.80;99.90
22682;DHT22;11508;50.856;4.380;2023-05-23T12:10:56;22.90;99.90
22682;DHT22;11508;50.856;4.380;2023-05-23T12:13:24;23.00;99.90
22682;DHT22;11508;50.856;4.380;2023-05-23T12:16:01;21.50;99.90
22682;DHT22;11508;50.856;4.380;2023-05-23T12:18:28;21.00;99.90
22682;DHT22;11508;50.856;4.380;2023-05-23T12:20:54;21.90;99.90
22682;DHT22;11508;50.856;4.380;2023-05-23T12:23:26;22.70;99.90
22682;DHT22;11508;50.856;4.380;2023-05-23T12:25:53;23.40;99.90
22682;DHT22;11508;50.856;4.380;2023-05-23T12:28:20;22.90;99.90
22682;DHT22;11508;50.856;4.380;2023-05-23T12:30:46;22.60;99.90
22682;DHT22;11508;50.856;4.380;2023-05-23T12:33:13;19.90;99.90
22682;DHT22;11508;50.856;4.380;2023-05-23T12:35:43;20.50;99.90
22682;DHT22;11508;50.856;4.380;2023-05-23T12:38:15;21.60;99.90
22682;DHT22;11508;50.856;4.380;2023-05-23T12:40:44;22.20;99.90
22682;DHT22;11508;50.856;4.380;2023-05-23T12:43:09;22.40;99.90
22682;DHT22;11508;50.856;4.380;2023-05-23T12:45:35;21.60;99.90
22682;DHT22;11508;50.856;4.380;2023-05-23T12:48:03;22.10;99.90
22682;DHT22;11508;50.856;4.380;2023-05-23T12:50:29;22.30;99.90
22682;DHT22;11508;50.856;4.380;2023-05-23T12:52:55;22.60;99.90
22682;DHT22;11508;50.856;4.380;2023-05-23T12:55:21;21.80;99.90
22682;DHT22;11508;50.856;4.380;2023-05-23T12:57:47;20.10;99.90
22682;DHT22;11508;50.856;4.380;2023-05-23T13:00:13;20.10;99.90
22682;DHT22;11508;50.856;4.380;2023-05-23T13:02:39;20.20;99.90
22682;DHT22;11508;50.856;4.380;2023-05-23T13:05:06;20.50;99.90
22682;DHT22;11508;50.856;4.380;2023-05-23T13:07:31;20.60;99.90
22682;DHT22;11508;50.856;4.380;2023-05-23T13:09:57;20.60;99.90
22682;DHT22;11508;50.856;4.380;2023-05-23T13:12:23;21.10;99.90
22682;DHT22;11508;50.856;4.380;2023-05-23T13:14:49;21.60;99.90
22682;DHT22;11508;50.856;4.380;2023-05-23T13:17:16;21.60;99.90
22682;DHT22;11508;50.856;4.380;2023-05-23T13:19:41;21.20;99.90
22682;DHT22;11508;50.856;4.380;2023-05-23T13:22:07;21.70;99.90
22682;DHT22;11508;50.856;4.380;2023-05-23T13:24:37;21.60;99.90
22682;DHT22;11508;50.856;4.380;2023-05-23T13:27:04;21.90;99.90
22682;DHT22;11508;50.856;4.380;2023-05-23T13:29:30;21.00;99.90
22682;DHT22;11508;50.856;4.380;2023-05-23T13:31:59;20.50;99.90
22682;DHT22;11508;50.856;4.380;2023-05-23T13:34:26;20.90;99.90
22682;DHT22;11508;50.856;4.380;2023-05-23T13:36:53;21.20;99.90
22682;DHT22;11508;50.856;4.380;2023-05-23T13:39:19;21.30;99.90
22682;DHT22;11508;50.856;4.380;2023-05-23T13:41:49;19.90;99.90
22682;DHT22;11508;50.856;4.380;2023-05-23T13:44:14;19.70;99.90
22682;DHT22;11508;50.856;4.380;2023-05-23T13:46:42;19.30;99.90
22682;DHT22;11508;50.856;4.380;2023-05-23T13:49:07;19.20;99.90
22682;DHT22;11508;50.856;4.380;2023-05-23T13:51:33;19.90;99.90
22682;DHT22;11508;50.856;4.380;2023-05-23T13:54:02;20.00;99.90
22682;DHT22;11508;50.856;4.380;2023-05-23T13:56:28;20.10;99.90
22682;DHT22;11508;50.856;4.380;2023-05-23T13:58:57;20.20;99.90
22682;DHT22;11508;50.856;4.380;2023-05-23T14:01:23;20.20;99.90
22682;DHT22;11508;50.856;4.380;2023-05-23T14:03:49;20.70;99.90
22682;DHT22;11508;50.856;4.380;2023-05-23T14:06:15;20.60;99.90
22682;DHT22;11508;50.856;4.380;2023-05-23T14:08:41;20.30;99.90
22682;DHT22;11508;50.856;4.380;2023-05-23T14:11:07;20.60;99.90
22682;DHT22;11508;50.856;4.380;2023-05-23T14:13:32;20.50;99.90
22682;DHT22;11508;50.856;4.380;2023-05-23T14:15:58;20.60;99.90
22682;DHT22;11508;50.856;4.380;2023-05-23T14:18:24;20.60;99.90
22682;DHT22;11508;50.856;4.380;2023-05-23T14:20:50;20.50;99.90
22682;DHT22;11508;50.856;4.380;2023-05-23T14:23:15;20.10;99.90
22682;DHT22;11508;50.856;4.380;2023-05-23T14:25:41;19.90;99.90
22682;DHT22;11508;50.856;4.380;2023-05-23T14:28:07;20.20;99.90
22682;DHT22;11508;50.856;4.380;2023-05-23T14:30:33;19.60;99.90
22682;DHT22;11508;50.856;4.380;2023-05-23T14:32:59;18.90;99.90
22682;DHT22;11508;50.856;4.380;2023-05-23T14:35:25;18.50;99.90
22682;DHT22;11508;50.856;4.380;2023-05-23T14:37:51;19.00;99.90
22682;DHT22;11508;50.856;4.380;2023-05-23T14:40:17;19.20;99.90
22682;DHT22;11508;50.856;4.380;2023-05-23T14:42:43;19.40;99.90
22682;DHT22;11508;50.856;4.380;2023-05-23T14:45:09;19.40;99.90
22682;DHT22;11508;50.856;4.380;2023-05-23T14:47:34;19.70;99.90
22682;DHT22;11508;50.856;4.380;2023-05-23T14:50:02;19.30;99.90
22682;DHT22;11508;50.856;4.380;2023-05-23T14:52:27;18.80;99.90
22682;DHT22;11508;50.856;4.380;2023-05-23T14:54:53;19.20;99.90
22682;DHT22;11508;50.856;4.380;2023-05-23T14:57:19;18.80;99.90
22682;DHT22;11508;50.856;4.380;2023-05-23T14:59:45;19.00;99.90
22682;DHT22;11508;50.856;4.380;2023-05-23T15:02:11;19.40;99.90
22682;DHT22;11508;50.856;4.380;2023-05-23T15:04:37;18.70;99.90
22682;DHT22;11508;50.856;4.380;2023-05-23T15:07:03;18.50;99.90
22682;DHT22;11508;50.856;4.380;2023-05-23T15:09:29;18.80;99.90
22682;DHT22;11508;50.856;4.380;2023-05-23T15:11:55;19.30;99.90
22682;DHT22;11508;50.856;4.380;2023-05-23T15:14:21;19.40;99.90
22682;DHT22;11508;50.856;4.380;2023-05-23T15:16:47;19.70;99.90
22682;DHT22;11508;50.856;4.380;2023-05-23T15:19:15;19.90;99.90
22682;DHT22;11508;50.856;4.380;2023-05-23T15:21:40;19.90;99.90
22682;DHT22;11508;50.856;4.380;2023-05-23T15:24:07;19.80;99.90
22682;DHT22;11508;50.856;4.380;2023-05-23T15:26:33;19.90;99.90
22682;DHT22;11508;50.856;4.380;2023-05-23T15:29:00;19.30;99.90
22682;DHT22;11508;50.856;4.380;2023-05-23T15:31:25;19.50;99.90
22682;DHT22;11508;50.856;4.380;2023-05-23T15:33:51;19.60;99.90
22682;DHT22;11508;50.856;4.380;2023-05-23T15:36:17;19.50;99.90
22682;DHT22;11508;50.856;4.380;2023-05-23T15:38:43;19.20;99.90
22682;DHT22;11508;50.856;4.380;2023-05-23T15:41:09;19.20;99.90
22682;DHT22;11508;50.856;4.380;2023-05-23T15:43:35;19.40;99.90
22682;DHT22;11508;50.856;4.380;2023-05-23T15:46:01;19.60;99.90
22682;DHT22;11508;50.856;4.380;2023-05-23T15:48:27;19.30;99.90
22682;DHT22;11508;50.856;4.380;2023-05-23T15:50:53;19.30;99.90
22682;DHT22;11508;50.856;4.380;2023-05-23T15:53:19;19.40;99.90
22682;DHT22;11508;50.856;4.380;2023-05-23T15:55:45;19.30;99.90
22682;DHT22;11508;50.856;4.380;2023-05-23T15:58:11;19.20;99.90
22682;DHT22;11508;50.856;4.380;2023-05-23T16:00:37;19.60;99.90
22682;DHT22;11508;50.856;4.380;2023-05-23T16:03:02;19.40;99.90